Augusta, New Jersey
Current Conditions -  °F | °C
As of 11:53 AM on Tuesday 27 Jan 2015 (Local Time) from KFWN Reporting Station
Light Snow Light Snow  
Wind Chill: 12°   Ceiling: 2900
Heat Index: 21°   Visibility: 3mi
Dew Point: 13°   Wind: 7mph
Humidity: 71%   Direction: NA
Pressure: 29.71"   Gusts: NA
Location:  41.13°N, 74.73°W
Report Text: KFWN 271653Z AUTO VRB06KT 3SM -SN BKN029 OVC035 M06/M11 A2971 RMK AO2 SLP066 P0000 T10611106
Loading
Personal Weather Stations






























Interactive Weather Map New forecast layout! Learn more

10-Day Weather Forecast

Advertisements
Track Severe Weather on mobile